createdAt,value
2023-01-20T00:01:12.272Z,25.45
2023-01-20T00:03:40.284Z,27.27
2023-01-20T00:06:07.608Z,29.48
2023-01-20T00:08:34.703Z,28.13
2023-01-20T00:11:08.965Z,33.33
2023-01-20T00:13:36.667Z,34.60
2023-01-20T00:16:04.724Z,31.63
2023-01-20T00:18:32.078Z,33.55
2023-01-20T00:21:03.001Z,30.38
2023-01-20T00:23:30.210Z,36.17
2023-01-20T00:25:57.324Z,30.70
2023-01-20T00:28:24.502Z,36.72
2023-01-20T00:30:51.771Z,33.75
2023-01-20T00:33:19.013Z,34.75
2023-01-20T00:35:46.236Z,28.05
2023-01-20T00:38:13.420Z,32.55
2023-01-20T00:40:40.525Z,31.83
2023-01-20T00:43:07.809Z,34.53
2023-01-20T00:45:34.963Z,33.72
2023-01-20T00:48:02.128Z,31.80
2023-01-20T00:50:29.333Z,33.53
2023-01-20T00:52:56.478Z,30.88
2023-01-20T00:55:23.630Z,35.47
2023-01-20T00:57:50.748Z,32.03
2023-01-20T01:00:19.078Z,31.27
2023-01-20T01:02:46.239Z,29.30
2023-01-20T01:05:13.634Z,31.50
2023-01-20T01:07:40.949Z,28.27
2023-01-20T01:10:08.445Z,23.88
2023-01-20T01:12:35.615Z,27.08
2023-01-20T01:15:02.868Z,28.38
2023-01-20T01:17:30.008Z,27.13
2023-01-20T01:19:57.178Z,30.15
2023-01-20T01:22:24.424Z,26.45
2023-01-20T01:24:51.658Z,25.42
2023-01-20T01:27:18.832Z,25.73
2023-01-20T01:29:45.991Z,26.80
2023-01-20T01:32:13.225Z,27.45
2023-01-20T01:34:40.354Z,27.30
2023-01-20T01:37:08.015Z,24.65
2023-01-20T01:39:35.119Z,23.52
2023-01-20T01:42:02.378Z,25.80
2023-01-20T01:44:29.557Z,25.30
2023-01-20T01:46:56.721Z,22.67
2023-01-20T01:49:27.361Z,23.90
2023-01-20T01:52:02.533Z,21.80
2023-01-20T01:54:35.991Z,23.30
2023-01-20T01:57:03.535Z,23.88
2023-01-20T01:59:30.730Z,23.42
2023-01-20T02:01:58.245Z,27.77
2023-01-20T02:04:27.023Z,23.02
2023-01-20T02:06:59.756Z,22.42
2023-01-20T02:09:27.677Z,21.88
2023-01-20T02:11:56.649Z,18.45
2023-01-20T02:14:26.680Z,24.02
2023-01-20T02:16:58.931Z,20.05
2023-01-20T02:19:48.609Z,19.48
2023-01-20T02:22:30.825Z,20.02
2023-01-20T02:25:17.081Z,21.05
2023-01-20T02:27:47.442Z,20.23
2023-01-20T02:30:33.632Z,19.95
2023-01-20T02:33:00.835Z,22.08
2023-01-20T02:35:34.320Z,22.85
2023-01-20T02:38:01.434Z,22.58
2023-01-20T02:40:39.294Z,20.63
2023-01-20T02:43:26.661Z,22.83
2023-01-20T02:45:58.805Z,22.35
2023-01-20T02:48:31.623Z,18.75
2023-01-20T02:50:58.772Z,18.75
2023-01-20T02:53:26.685Z,17.70
2023-01-20T02:55:55.022Z,19.77
2023-01-20T02:58:34.332Z,17.88
2023-01-20T03:01:15.473Z,18.92
2023-01-20T03:03:44.800Z,18.90
2023-01-20T03:06:14.699Z,20.50
2023-01-20T03:08:41.917Z,18.17
2023-01-20T03:11:09.877Z,17.13
2023-01-20T03:13:37.055Z,18.20
2023-01-20T03:16:09.242Z,21.80
2023-01-20T03:18:37.689Z,19.27
2023-01-20T03:21:05.838Z,17.38
2023-01-20T03:23:35.272Z,17.23
2023-01-20T03:26:08.063Z,17.20
2023-01-20T03:28:35.561Z,22.08
2023-01-20T03:31:04.353Z,19.60
2023-01-20T03:33:31.664Z,20.02
2023-01-20T03:35:58.954Z,25.40
2023-01-20T03:38:26.140Z,21.48
2023-01-20T03:41:13.566Z,17.48
2023-01-20T03:44:04.048Z,20.55
2023-01-20T03:46:31.143Z,18.58
2023-01-20T03:49:02.904Z,21.08
2023-01-20T03:51:35.499Z,22.48
2023-01-20T03:54:10.156Z,20.63
2023-01-20T03:56:46.682Z,22.00
2023-01-20T03:59:15.326Z,22.20
2023-01-20T04:01:44.169Z,23.65
2023-01-20T04:04:14.449Z,24.40
2023-01-20T04:06:43.755Z,25.45
2023-01-20T04:09:13.631Z,29.15
2023-01-20T04:11:41.003Z,24.90
2023-01-20T04:14:09.691Z,22.13
2023-01-20T04:16:37.555Z,26.73
2023-01-20T04:19:04.956Z,25.88
2023-01-20T04:21:37.612Z,28.67
2023-01-20T04:24:11.625Z,27.60
2023-01-20T04:26:38.780Z,26.90
2023-01-20T04:29:11.126Z,24.83
2023-01-20T04:31:39.320Z,25.35
2023-01-20T04:34:06.881Z,28.77
2023-01-20T04:36:34.059Z,28.17
2023-01-20T04:39:01.250Z,27.52
2023-01-20T04:41:28.378Z,31.15
2023-01-20T04:43:55.609Z,31.33
2023-01-20T04:46:22.832Z,33.55
2023-01-20T04:48:50.238Z,33.25
2023-01-20T04:51:17.440Z,33.40
2023-01-20T04:53:44.659Z,36.63
2023-01-20T04:56:12.938Z,42.38
2023-01-20T04:58:40.298Z,40.47
2023-01-20T05:01:07.570Z,37.75
2023-01-20T05:03:35.217Z,39.70
2023-01-20T05:06:02.435Z,37.70
2023-01-20T05:08:29.557Z,40.28
2023-01-20T05:10:56.788Z,39.20
2023-01-20T05:13:24.038Z,45.38
2023-01-20T05:15:51.374Z,45.20
2023-01-20T05:18:18.680Z,43.00
2023-01-20T05:20:49.703Z,39.67
2023-01-20T05:23:17.690Z,45.47
2023-01-20T05:25:50.691Z,45.25
2023-01-20T05:28:18.132Z,45.35
2023-01-20T05:30:45.521Z,50.22
2023-01-20T05:33:12.816Z,44.90
2023-01-20T05:35:39.964Z,53.20
2023-01-20T05:38:07.441Z,47.65
2023-01-20T05:40:34.589Z,44.97
2023-01-20T05:43:02.068Z,50.30
2023-01-20T05:45:29.587Z,43.65
2023-01-20T05:47:57.962Z,36.38
2023-01-20T05:50:26.045Z,38.55
2023-01-20T05:52:53.357Z,42.35
2023-01-20T05:55:20.527Z,47.13
2023-01-20T05:57:47.786Z,45.58
2023-01-20T06:00:15.188Z,47.40
2023-01-20T06:02:42.514Z,48.92
2023-01-20T06:05:09.871Z,42.67
2023-01-20T06:07:37.050Z,53.20
2023-01-20T06:10:04.277Z,46.45
2023-01-20T06:12:31.450Z,39.20
2023-01-20T06:14:58.577Z,37.38
2023-01-20T06:17:25.705Z,40.53
2023-01-20T06:19:52.973Z,42.20
2023-01-20T06:22:21.132Z,41.58
2023-01-20T06:24:48.272Z,45.33
2023-01-20T06:27:15.407Z,35.85
2023-01-20T06:29:42.749Z,39.70
2023-01-20T06:32:09.997Z,39.10
2023-01-20T06:34:37.172Z,38.60
2023-01-20T06:37:04.437Z,47.53
2023-01-20T06:39:31.562Z,41.67
2023-01-20T06:41:59.273Z,39.80
2023-01-20T06:44:26.658Z,41.92
2023-01-20T06:46:54.318Z,43.20
2023-01-20T06:49:21.548Z,40.95
2023-01-20T06:51:49.465Z,41.13
2023-01-20T06:54:16.916Z,45.45
2023-01-20T06:56:44.159Z,48.65
2023-01-20T06:59:12.209Z,52.17
2023-01-20T07:01:39.883Z,48.70
2023-01-20T07:04:08.232Z,58.95
2023-01-20T07:06:38.451Z,55.95
2023-01-20T07:09:06.791Z,50.13
2023-01-20T07:11:35.794Z,54.90
2023-01-20T07:14:03.610Z,52.03
2023-01-20T07:16:30.959Z,57.90
2023-01-20T07:18:58.149Z,49.30
2023-01-20T07:21:26.665Z,50.00
2023-01-20T07:23:54.291Z,50.45
2023-01-20T07:26:22.746Z,51.25
2023-01-20T07:28:49.993Z,44.63
2023-01-20T07:31:21.321Z,46.05
2023-01-20T07:33:48.598Z,48.10
2023-01-20T07:36:16.629Z,42.28
2023-01-20T07:38:43.899Z,35.33
2023-01-20T07:41:16.093Z,38.92
2023-01-20T07:43:44.266Z,40.40
2023-01-20T07:46:12.079Z,35.38
2023-01-20T07:48:40.412Z,35.13
2023-01-20T07:51:08.831Z,38.85
2023-01-20T07:53:37.470Z,38.42
2023-01-20T07:56:05.647Z,43.33
2023-01-20T07:58:32.784Z,38.70
2023-01-20T08:01:07.294Z,35.95
2023-01-20T08:03:34.604Z,40.35
2023-01-20T08:06:05.774Z,42.25
2023-01-20T08:08:33.501Z,44.33
2023-01-20T08:11:01.534Z,43.10
2023-01-20T08:13:29.175Z,38.38
2023-01-20T08:15:56.526Z,31.65
2023-01-20T08:18:23.793Z,25.05
2023-01-20T08:20:50.952Z,22.30
2023-01-20T08:23:18.157Z,27.80
2023-01-20T08:25:45.309Z,23.70
2023-01-20T08:28:12.706Z,26.00
2023-01-20T08:30:40.095Z,26.88
2023-01-20T08:33:07.393Z,28.83
2023-01-20T08:35:35.710Z,33.83
2023-01-20T08:38:03.559Z,28.50
2023-01-20T08:40:32.382Z,33.10
2023-01-20T08:43:00.411Z,30.10
2023-01-20T08:45:27.661Z,28.33
2023-01-20T08:47:54.995Z,29.05
2023-01-20T08:50:23.443Z,25.42
2023-01-20T08:52:50.664Z,26.23
2023-01-20T08:55:17.894Z,26.20
2023-01-20T08:57:45.889Z,28.60
2023-01-20T09:00:13.912Z,23.77
2023-01-20T09:02:41.311Z,29.73
2023-01-20T09:05:08.874Z,24.40
2023-01-20T09:07:36.268Z,24.95
2023-01-20T09:10:05.980Z,25.67
2023-01-20T09:12:33.142Z,21.88
2023-01-20T09:15:04.739Z,28.52
2023-01-20T09:17:32.683Z,27.65
2023-01-20T09:19:59.835Z,42.15
2023-01-20T09:22:27.052Z,41.28
2023-01-20T09:24:54.724Z,30.25
2023-01-20T09:27:22.605Z,32.40
2023-01-20T09:29:49.800Z,24.55
2023-01-20T09:32:16.965Z,23.95
2023-01-20T09:34:44.109Z,23.45
2023-01-20T09:37:31.539Z,18.42
2023-01-20T09:40:22.051Z,23.02
2023-01-20T09:43:22.867Z,25.10
2023-01-20T09:45:55.315Z,19.83
2023-01-20T09:48:47.145Z,18.17
2023-01-20T09:51:37.519Z,18.45
2023-01-20T09:54:09.362Z,17.17
2023-01-20T09:56:40.880Z,19.52
2023-01-20T09:59:10.529Z,17.73
2023-01-20T10:01:46.395Z,18.92
2023-01-20T10:04:13.567Z,19.10
2023-01-20T10:06:49.441Z,20.83
2023-01-20T10:09:23.712Z,18.83
2023-01-20T10:11:52.371Z,19.27
2023-01-20T10:14:24.084Z,16.58
2023-01-20T10:16:54.266Z,20.87
2023-01-20T10:19:27.217Z,17.67
2023-01-20T10:22:09.561Z,17.35
2023-01-20T10:24:40.563Z,18.98
2023-01-20T10:27:07.807Z,16.65
2023-01-20T10:29:39.120Z,19.05
2023-01-20T10:32:14.205Z,20.60
2023-01-20T10:34:46.065Z,16.02
2023-01-20T10:37:15.367Z,17.23
2023-01-20T10:39:49.050Z,17.85
2023-01-20T10:42:17.985Z,20.48
2023-01-20T10:44:46.141Z,18.98
2023-01-20T10:47:13.749Z,18.50
2023-01-20T10:49:47.046Z,19.42
2023-01-20T10:52:20.189Z,23.25
2023-01-20T10:54:47.360Z,22.83
2023-01-20T10:57:16.018Z,17.92
2023-01-20T10:59:44.952Z,20.92
2023-01-20T11:02:21.810Z,19.67
2023-01-20T11:04:53.091Z,15.65
2023-01-20T11:07:20.489Z,17.65
2023-01-20T11:09:48.914Z,22.23
2023-01-20T11:12:18.079Z,17.67
2023-01-20T11:14:46.865Z,17.17
2023-01-20T11:17:16.915Z,19.00
2023-01-20T11:19:47.405Z,17.48
2023-01-20T11:22:20.632Z,21.13
2023-01-20T11:24:48.281Z,18.33
2023-01-20T11:27:17.634Z,17.70
2023-01-20T11:29:50.572Z,18.55
2023-01-20T11:32:37.610Z,17.02
2023-01-20T11:35:24.568Z,15.75
2023-01-20T11:37:52.294Z,17.75
2023-01-20T11:40:19.516Z,24.15
2023-01-20T11:42:47.877Z,14.40
2023-01-20T11:45:24.169Z,16.25
2023-01-20T11:48:17.531Z,14.18
2023-01-20T11:50:50.753Z,16.98
2023-01-20T11:53:23.307Z,14.02
2023-01-20T11:55:55.032Z,14.50
2023-01-20T11:58:26.105Z,14.67
2023-01-20T12:00:59.819Z,10.93
2023-01-20T12:03:26.985Z,14.10
2023-01-20T12:05:55.139Z,13.43
2023-01-20T12:08:27.411Z,10.45
2023-01-20T12:10:55.605Z,12.93
2023-01-20T12:13:28.820Z,14.60
2023-01-20T12:15:57.114Z,15.60
2023-01-20T12:18:32.874Z,12.07
2023-01-20T12:21:04.231Z,13.40
2023-01-20T12:23:45.718Z,15.82
2023-01-20T12:26:14.978Z,9.85
2023-01-20T12:29:01.028Z,12.30
2023-01-20T12:31:28.365Z,14.35
2023-01-20T12:34:00.736Z,12.07
2023-01-20T12:36:46.911Z,11.82
2023-01-20T12:39:27.914Z,15.13
2023-01-20T12:41:56.423Z,11.70
2023-01-20T12:44:44.658Z,12.70
2023-01-20T12:47:19.258Z,10.00
2023-01-20T12:49:52.209Z,11.75
2023-01-20T12:52:19.371Z,12.68
2023-01-20T12:54:54.862Z,12.30
2023-01-20T12:57:31.072Z,11.98
2023-01-20T13:00:14.739Z,11.52
2023-01-20T13:02:45.105Z,10.38
2023-01-20T13:05:31.191Z,8.50
2023-01-20T13:08:07.657Z,12.23
2023-01-20T13:10:38.944Z,11.80
2023-01-20T13:13:06.072Z,11.15
2023-01-20T13:15:36.669Z,9.63
2023-01-20T13:18:12.883Z,10.57
2023-01-20T13:20:42.067Z,9.20
2023-01-20T13:23:11.678Z,10.02
2023-01-20T13:25:40.020Z,11.23
2023-01-20T13:28:12.391Z,12.63
2023-01-20T13:30:48.077Z,10.55
2023-01-20T13:33:17.321Z,13.63
2023-01-20T13:35:49.176Z,21.30
2023-01-20T13:38:39.372Z,13.68
2023-01-20T13:41:07.123Z,20.75
2023-01-20T13:43:47.081Z,13.75
2023-01-20T13:46:15.230Z,10.93
2023-01-20T13:49:01.403Z,20.48
2023-01-20T13:51:29.680Z,12.95
2023-01-20T13:54:16.874Z,16.13
2023-01-20T13:56:44.052Z,14.00
2023-01-20T13:59:11.234Z,33.78
2023-01-20T14:01:39.505Z,12.65
2023-01-20T14:04:08.118Z,18.27
2023-01-20T14:06:36.099Z,23.65
2023-01-20T14:09:03.509Z,14.93
2023-01-20T14:11:31.423Z,42.83
2023-01-20T14:14:03.020Z,26.02
2023-01-20T14:16:31.905Z,14.35
2023-01-20T14:19:00.387Z,22.52
2023-01-20T14:21:31.985Z,18.52
2023-01-20T14:23:59.245Z,15.38
2023-01-20T14:26:27.575Z,30.77
2023-01-20T14:28:55.627Z,14.00
2023-01-20T14:31:22.918Z,8.10
2023-01-20T14:34:01.480Z,12.27
2023-01-20T14:36:31.312Z,10.32
2023-01-20T14:39:03.622Z,11.27
2023-01-20T14:41:33.120Z,12.65
2023-01-20T14:44:00.769Z,7.55
2023-01-20T14:46:29.223Z,9.38
2023-01-20T14:48:56.702Z,12.15
2023-01-20T14:51:24.186Z,6.57
2023-01-20T14:54:26.844Z,9.57
2023-01-20T14:56:54.081Z,7.55
2023-01-20T14:59:21.493Z,8.57
2023-01-20T15:01:52.500Z,8.98
2023-01-20T15:04:19.680Z,10.35
2023-01-20T15:06:52.421Z,6.97
2023-01-20T15:11:47.047Z,9.77
2023-01-20T15:14:14.949Z,7.93
2023-01-20T15:16:47.428Z,9.95
2023-01-20T15:19:18.611Z,9.93
2023-01-20T15:21:48.612Z,11.32
2023-01-20T15:24:17.110Z,10.00
2023-01-20T15:26:45.283Z,14.68
2023-01-20T15:29:27.867Z,12.65
2023-01-20T15:31:56.106Z,11.57
2023-01-20T15:34:23.789Z,11.40
2023-01-20T15:36:51.672Z,13.45
2023-01-20T15:39:23.877Z,9.45
2023-01-20T15:41:54.407Z,12.45
2023-01-20T15:44:22.224Z,17.63
2023-01-20T15:46:49.492Z,16.00
2023-01-20T15:49:17.210Z,19.85
2023-01-20T15:51:45.444Z,19.38
2023-01-20T15:54:13.770Z,19.48
2023-01-20T15:56:41.695Z,15.65
2023-01-20T15:59:21.044Z,17.25
2023-01-20T16:01:51.181Z,23.05
2023-01-20T16:04:18.541Z,20.40
2023-01-20T16:06:45.808Z,24.48
2023-01-20T16:09:16.830Z,23.98
2023-01-20T16:11:43.996Z,23.92
2023-01-20T16:14:11.128Z,20.88
2023-01-20T16:16:38.405Z,34.50
2023-01-20T16:19:06.721Z,24.02
2023-01-20T16:21:33.869Z,24.38
2023-01-20T16:24:01.031Z,28.80
2023-01-20T16:26:29.020Z,39.92
2023-01-20T16:28:57.647Z,26.20
2023-01-20T16:31:25.924Z,25.15
2023-01-20T16:33:54.178Z,31.27
2023-01-20T16:36:22.204Z,28.33
2023-01-20T16:38:49.872Z,41.45
2023-01-20T16:41:24.257Z,40.47
2023-01-20T16:43:52.640Z,58.90
2023-01-20T16:46:21.376Z,52.75
2023-01-20T16:48:48.877Z,60.05
2023-01-20T16:51:17.700Z,48.55
2023-01-20T16:53:45.276Z,47.67
2023-01-20T16:56:16.796Z,44.13
2023-01-20T16:58:44.113Z,48.95
2023-01-20T17:01:14.017Z,44.13
2023-01-20T17:03:42.205Z,48.13
2023-01-20T17:06:12.983Z,36.67
2023-01-20T17:08:40.225Z,44.50
2023-01-20T17:11:07.420Z,48.45
2023-01-20T17:13:34.524Z,42.45
2023-01-20T17:16:02.858Z,48.42
2023-01-20T17:18:30.069Z,48.65
2023-01-20T17:20:57.291Z,51.50
2023-01-20T17:23:24.617Z,44.80
2023-01-20T17:25:51.830Z,47.55
2023-01-20T17:28:19.152Z,40.08
2023-01-20T17:30:47.677Z,41.00
2023-01-20T17:33:14.937Z,42.63
2023-01-20T17:35:43.104Z,42.67
2023-01-20T17:38:10.484Z,60.42
2023-01-20T17:40:37.649Z,54.03
2023-01-20T17:43:05.291Z,60.50
2023-01-20T17:45:32.582Z,59.47
2023-01-20T17:47:59.780Z,51.47
2023-01-20T17:50:27.555Z,50.17
2023-01-20T17:52:54.665Z,50.75
2023-01-20T17:55:21.829Z,46.13
2023-01-20T17:57:50.638Z,50.58
2023-01-20T18:00:18.467Z,61.55
2023-01-20T18:02:45.811Z,53.55
2023-01-20T18:05:12.993Z,83.25
2023-01-20T18:07:40.207Z,74.22
2023-01-20T18:10:07.517Z,88.30
2023-01-20T18:12:34.953Z,84.82
2023-01-20T18:15:02.247Z,74.22
2023-01-20T18:17:34.384Z,76.93
2023-01-20T18:20:01.619Z,56.92
2023-01-20T18:22:28.807Z,49.10
2023-01-20T18:24:57.076Z,57.05
2023-01-20T18:27:24.434Z,51.00
2023-01-20T18:29:51.645Z,57.42
2023-01-20T18:32:18.787Z,55.33
2023-01-20T18:34:45.923Z,57.50
2023-01-20T18:37:13.065Z,54.00
2023-01-20T18:39:40.175Z,56.85
2023-01-20T18:42:07.301Z,59.80
2023-01-20T18:44:34.517Z,54.45
2023-01-20T18:47:01.721Z,57.75
2023-01-20T18:49:28.920Z,58.92
2023-01-20T18:51:56.190Z,57.97
2023-01-20T18:54:25.112Z,53.65
2023-01-20T18:56:52.408Z,49.88
2023-01-20T18:59:19.613Z,50.22
2023-01-20T19:01:47.254Z,54.25
2023-01-20T19:04:14.485Z,49.10
2023-01-20T19:06:42.853Z,51.95
2023-01-20T19:09:10.105Z,67.32
2023-01-20T19:11:41.330Z,47.83
2023-01-20T19:14:11.112Z,49.00
2023-01-20T19:16:39.416Z,59.97
2023-01-20T19:19:07.477Z,57.70
2023-01-20T19:21:36.567Z,57.30
2023-01-20T19:24:06.043Z,61.30
2023-01-20T19:26:34.502Z,60.58
2023-01-20T19:29:03.183Z,57.00
2023-01-20T19:31:31.135Z,54.13
2023-01-20T19:33:58.331Z,55.25
2023-01-20T19:36:25.635Z,63.67
2023-01-20T19:38:52.855Z,65.72
2023-01-20T19:41:27.654Z,65.95
2023-01-20T19:43:57.108Z,60.90
2023-01-20T19:46:34.578Z,68.18
2023-01-20T19:49:02.578Z,61.63
2023-01-20T19:51:31.468Z,57.78
2023-01-20T19:54:00.298Z,62.55
2023-01-20T19:56:28.608Z,60.88
2023-01-20T19:58:56.163Z,60.45
2023-01-20T20:01:30.623Z,65.93
2023-01-20T20:03:58.979Z,49.63
2023-01-20T20:06:32.477Z,44.97
2023-01-20T20:09:00.718Z,44.95
2023-01-20T20:11:31.318Z,44.63
2023-01-20T20:13:59.383Z,39.95
2023-01-20T20:16:27.489Z,42.72
2023-01-20T20:18:55.145Z,49.50
2023-01-20T20:21:22.404Z,41.60
2023-01-20T20:23:50.677Z,43.35
2023-01-20T20:26:18.096Z,52.25
2023-01-20T20:28:45.295Z,50.00
2023-01-20T20:31:12.566Z,53.63
2023-01-20T20:33:39.809Z,53.28
2023-01-20T20:36:10.925Z,87.13
2023-01-20T20:38:38.116Z,190.25
2023-01-20T20:41:08.016Z,85.65
2023-01-20T20:43:35.732Z,48.13
2023-01-20T20:46:03.835Z,48.08
2023-01-20T20:48:33.334Z,37.22
2023-01-20T20:51:07.840Z,39.67
2023-01-20T20:53:35.348Z,32.60
2023-01-20T20:56:06.527Z,28.02
2023-01-20T20:58:33.866Z,31.98
2023-01-20T21:01:02.782Z,32.95
2023-01-20T21:03:30.671Z,33.92
2023-01-20T21:05:58.107Z,29.33
2023-01-20T21:08:26.266Z,30.33
2023-01-20T21:10:53.462Z,29.80
2023-01-20T21:13:20.992Z,26.90
2023-01-20T21:15:55.123Z,33.08
2023-01-20T21:18:22.433Z,30.13
2023-01-20T21:20:56.616Z,26.88
2023-01-20T21:23:24.148Z,29.00
2023-01-20T21:25:51.408Z,27.02
2023-01-20T21:28:18.843Z,30.20
2023-01-20T21:30:46.125Z,27.85
2023-01-20T21:33:17.563Z,29.63
2023-01-20T21:35:45.450Z,29.73
2023-01-20T21:38:12.967Z,27.70
2023-01-20T21:40:40.451Z,31.45
2023-01-20T21:43:26.619Z,29.55
2023-01-20T21:45:54.132Z,29.58
2023-01-20T21:48:40.040Z,31.23
2023-01-20T21:51:27.847Z,28.73
2023-01-20T21:53:55.031Z,28.02
2023-01-20T21:56:22.158Z,34.72
2023-01-20T21:58:49.382Z,38.13
2023-01-20T22:01:16.538Z,37.72
2023-01-20T22:03:43.652Z,37.92
2023-01-20T22:06:10.864Z,38.17
2023-01-20T22:08:37.969Z,36.58
2023-01-20T22:11:05.154Z,35.80
2023-01-20T22:13:33.848Z,29.08
2023-01-20T22:16:04.987Z,27.20
2023-01-20T22:18:32.427Z,30.65
2023-01-20T22:21:04.595Z,29.85
2023-01-20T22:23:35.357Z,24.85
2023-01-20T22:26:02.757Z,34.42
2023-01-20T22:28:30.567Z,28.55
2023-01-20T22:31:04.891Z,26.45
2023-01-20T22:33:32.127Z,31.23
2023-01-20T22:35:59.341Z,33.25
2023-01-20T22:38:26.588Z,34.45
2023-01-20T22:40:53.762Z,30.52
2023-01-20T22:43:21.270Z,30.65
2023-01-20T22:45:48.752Z,29.70
2023-01-20T22:48:15.968Z,25.95
2023-01-20T22:50:43.188Z,25.88
2023-01-20T22:53:10.412Z,30.88
2023-01-20T22:55:43.692Z,29.60
2023-01-20T22:58:16.830Z,29.30
2023-01-20T23:00:44.070Z,31.65
2023-01-20T23:03:11.343Z,34.65
2023-01-20T23:05:40.874Z,32.20
2023-01-20T23:08:08.098Z,46.08
2023-01-20T23:11:01.332Z,50.08
2023-01-20T23:13:31.681Z,54.65
2023-01-20T23:15:58.935Z,61.60
2023-01-20T23:18:26.491Z,29.70
2023-01-20T23:20:54.633Z,30.15
2023-01-20T23:23:22.277Z,35.05
2023-01-20T23:25:49.671Z,38.92
2023-01-20T23:28:17.123Z,40.28
2023-01-20T23:30:44.472Z,40.47
2023-01-20T23:33:11.791Z,60.38
2023-01-20T23:35:39.100Z,53.28
2023-01-20T23:38:09.486Z,51.08
2023-01-20T23:40:36.641Z,38.40
2023-01-20T23:43:03.873Z,53.42
2023-01-20T23:45:31.104Z,50.80
2023-01-20T23:47:58.345Z,50.80
2023-01-20T23:50:25.544Z,43.72
2023-01-20T23:52:52.703Z,33.88
2023-01-20T23:55:19.859Z,32.53
2023-01-20T23:57:47.050Z,26.88
